Time;durP1;ratioP1;P1;durP2;ratioP2;P2;SDS_P1;SDS_P2;PMS_P1;PMS_P2;Temp;Humidity;BMP_temperature;BMP_pressure;BME280_temperature;BME280_humidity;BME280_pressure;Samples;Min_cycle;Max_cycle;Signal;HPM_P1;HPM_P2
2021/07/31 00:01:38;;;;;;;8.07;4.10;;;20.20;99.90;;;;;;5091533;28;20374;-58
2021/07/31 00:04:05;;;;;;;8.60;3.85;;;20.30;99.90;;;;;;5092093;28;20379;-58
2021/07/31 00:06:30;;;;;;;8.18;4.30;;;20.30;99.90;;;;;;5091408;28;20405;-58
2021/07/31 00:08:56;;;;;;;7.20;3.50;;;20.20;99.90;;;;;;5091798;28;20726;-58
2021/07/31 00:11:22;;;;;;;7.13;3.60;;;20.20;99.90;;;;;;5090001;28;20386;-58
2021/07/31 00:13:48;;;;;;;7.30;3.50;;;20.10;99.90;;;;;;5091625;28;20389;-57
2021/07/31 00:16:13;;;;;;;7.67;3.50;;;20.00;99.90;;;;;;5091831;28;20378;-58
2021/07/31 00:18:39;;;;;;;7.40;3.00;;;19.90;99.90;;;;;;5091128;28;20382;-58
2021/07/31 00:21:05;;;;;;;7.20;3.05;;;19.90;99.90;;;;;;5090695;28;20398;-58
2021/07/31 00:23:30;;;;;;;11.32;4.10;;;19.70;99.90;;;;;;5089980;28;20378;-58
2021/07/31 00:25:56;;;;;;;6.80;3.00;;;20.00;99.90;;;;;;5091801;28;20406;-58
2021/07/31 00:28:25;;;;;;;9.82;2.70;;;20.10;99.90;;;;;;5091184;28;20459;-58
2021/07/31 00:30:51;;;;;;;6.72;3.10;;;20.00;99.90;;;;;;5091848;28;20382;-58
2021/07/31 00:33:16;;;;;;;8.20;2.63;;;20.00;99.90;;;;;;5091527;28;20386;-58
2021/07/31 00:35:42;;;;;;;6.53;3.30;;;20.10;99.90;;;;;;5091053;28;20872;-58
2021/07/31 00:38:08;;;;;;;7.68;2.70;;;20.10;99.90;;;;;;5091268;28;20378;-58
2021/07/31 00:40:35;;;;;;;6.80;2.97;;;20.20;99.90;;;;;;5090749;28;20386;-58
2021/07/31 00:43:05;;;;;;;6.18;2.60;;;20.10;99.90;;;;;;5091380;28;20421;-58
2021/07/31 00:45:31;;;;;;;6.50;2.70;;;20.10;99.90;;;;;;5090328;28;20410;-58
2021/07/31 00:47:57;;;;;;;5.97;2.53;;;20.10;99.90;;;;;;5091369;28;20382;-58
2021/07/31 00:50:23;;;;;;;7.30;2.90;;;20.10;99.90;;;;;;5090688;28;20381;-58
2021/07/31 00:52:50;;;;;;;16.48;2.60;;;20.10;99.90;;;;;;5091291;28;20379;-58
2021/07/31 00:55:16;;;;;;;6.13;2.60;;;20.10;99.90;;;;;;5091153;28;20475;-58
2021/07/31 00:57:45;;;;;;;6.40;2.50;;;19.90;99.90;;;;;;5090219;28;20542;-58
2021/07/31 01:00:11;;;;;;;5.88;2.00;;;19.80;99.90;;;;;;5091104;28;20413;-59
2021/07/31 01:02:37;;;;;;;5.97;2.65;;;19.70;99.90;;;;;;5088543;28;20417;-59
2021/07/31 01:05:03;;;;;;;6.40;2.53;;;19.60;99.90;;;;;;5091064;28;20490;-58
2021/07/31 01:07:29;;;;;;;6.95;3.08;;;19.70;99.90;;;;;;5089928;28;20876;-58
2021/07/31 01:09:55;;;;;;;6.57;3.00;;;19.70;99.90;;;;;;5090710;28;20465;-58
2021/07/31 01:12:20;;;;;;;7.90;2.57;;;19.70;99.90;;;;;;5090825;28;20374;-58
2021/07/31 01:14:46;;;;;;;7.33;3.00;;;19.60;99.90;;;;;;5089975;28;20764;-58
2021/07/31 01:17:12;;;;;;;7.32;2.90;;;19.60;99.90;;;;;;5090760;28;20413;-58
2021/07/31 01:19:41;;;;;;;6.40;2.50;;;19.50;99.90;;;;;;5089964;28;20393;-58
2021/07/31 01:22:07;;;;;;;7.00;2.70;;;19.50;99.90;;;;;;5090580;28;20421;-58
2021/07/31 01:24:32;;;;;;;7.30;2.90;;;19.40;99.90;;;;;;5089561;28;20810;-58
2021/07/31 01:26:58;;;;;;;8.52;2.65;;;19.40;99.90;;;;;;5090322;28;20394;-58
2021/07/31 01:29:24;;;;;;;8.43;2.85;;;19.30;99.90;;;;;;5089928;28;20465;-58
2021/07/31 01:31:49;;;;;;;7.00;2.87;;;19.30;99.90;;;;;;5090014;28;20410;-58
2021/07/31 01:34:15;;;;;;;6.70;2.57;;;19.30;99.90;;;;;;5090633;28;20431;-58
2021/07/31 01:36:41;;;;;;;7.20;2.72;;;19.20;99.90;;;;;;5089750;28;20443;-58
2021/07/31 01:39:06;;;;;;;6.07;2.40;;;19.20;99.90;;;;;;5088685;28;20869;-58
2021/07/31 01:41:35;;;;;;;6.40;2.73;;;19.10;99.90;;;;;;5089675;28;20378;-58
2021/07/31 01:44:05;;;;;;;9.23;2.25;;;19.10;99.90;;;;;;5089297;28;20394;-58
2021/07/31 01:46:31;;;;;;;7.70;2.38;;;19.20;99.90;;;;;;5089001;28;20410;-58
2021/07/31 01:48:56;;;;;;;9.20;2.53;;;19.30;99.90;;;;;;5089703;28;20378;-58
2021/07/31 01:51:22;;;;;;;6.20;1.90;;;19.30;99.90;;;;;;5090004;28;20393;-58
2021/07/31 01:53:47;;;;;;;6.20;2.30;;;19.30;99.90;;;;;;5089486;28;20469;-58
2021/07/31 01:56:13;;;;;;;6.88;2.25;;;19.40;99.90;;;;;;5089235;28;20856;-58
2021/07/31 01:58:38;;;;;;;5.65;2.15;;;19.40;99.90;;;;;;5089041;28;20827;-57
2021/07/31 02:01:04;;;;;;;7.00;2.20;;;19.30;99.90;;;;;;5090051;28;20868;-57
2021/07/31 02:03:30;;;;;;;7.07;2.45;;;19.30;99.90;;;;;;5089294;28;20378;-57
2021/07/31 02:05:57;;;;;;;7.90;2.38;;;19.20;99.90;;;;;;5088480;28;20749;-57
2021/07/31 02:08:23;;;;;;;6.00;2.30;;;19.10;99.90;;;;;;5090195;28;20378;-57
2021/07/31 02:10:50;;;;;;;9.80;2.60;;;19.00;99.90;;;;;;5089490;28;20382;-57
2021/07/31 02:13:16;;;;;;;8.32;2.10;;;19.00;99.90;;;;;;5088600;28;20401;-57
2021/07/31 02:15:46;;;;;;;8.13;2.22;;;19.00;99.90;;;;;;5088775;28;20406;-58
2021/07/31 02:18:12;;;;;;;6.35;1.92;;;18.90;99.90;;;;;;5090166;28;20378;-58
2021/07/31 02:20:38;;;;;;;6.17;2.33;;;18.90;99.90;;;;;;5089414;28;20466;-58
2021/07/31 02:23:04;;;;;;;6.28;1.60;;;18.80;99.90;;;;;;5090106;28;20717;-58
2021/07/31 02:25:30;;;;;;;7.82;2.00;;;18.60;99.90;;;;;;5088867;28;20753;-58
2021/07/31 02:27:56;;;;;;;7.73;2.13;;;18.40;99.90;;;;;;5090056;28;20477;-58
2021/07/31 02:30:22;;;;;;;7.40;2.35;;;18.40;99.90;;;;;;5089912;28;20725;-57
2021/07/31 02:32:48;;;;;;;7.80;2.20;;;18.40;99.90;;;;;;5089172;28;20430;-57
2021/07/31 02:35:13;;;;;;;6.60;2.55;;;18.30;99.90;;;;;;5089769;28;20396;-57
2021/07/31 02:37:39;;;;;;;5.60;2.03;;;18.30;99.90;;;;;;5089130;28;20382;-57
2021/07/31 02:40:06;;;;;;;5.90;2.10;;;18.20;99.90;;;;;;5088618;28;20798;-58
2021/07/31 02:42:32;;;;;;;9.55;2.53;;;18.10;99.90;;;;;;5088845;28;20391;-58
2021/07/31 02:44:59;;;;;;;7.40;2.57;;;18.10;99.90;;;;;;5089822;28;20413;-57
2021/07/31 02:47:25;;;;;;;5.97;2.10;;;18.00;99.90;;;;;;5089631;28;20398;-58
2021/07/31 02:49:55;;;;;;;6.07;1.90;;;18.10;99.90;;;;;;5088893;28;20898;-58
2021/07/31 02:52:22;;;;;;;7.38;1.90;;;18.00;99.90;;;;;;5089506;28;20404;-57
2021/07/31 02:54:49;;;;;;;7.00;2.30;;;17.80;99.90;;;;;;5089035;28;20376;-57
2021/07/31 02:57:15;;;;;;;7.40;2.40;;;17.80;99.90;;;;;;5089561;28;20371;-57
2021/07/31 02:59:40;;;;;;;7.60;2.10;;;17.80;99.90;;;;;;5089093;28;20389;-57
2021/07/31 03:02:06;;;;;;;7.80;2.10;;;17.70;99.90;;;;;;5088258;28;20394;-57
2021/07/31 03:04:32;;;;;;;6.25;2.30;;;17.70;99.90;;;;;;5091555;28;20448;-58
2021/07/31 03:06:58;;;;;;;10.20;2.60;;;17.60;99.90;;;;;;5093419;28;20382;-57
2021/07/31 03:09:23;;;;;;;6.03;2.00;;;17.60;99.90;;;;;;5093546;28;20373;-57
2021/07/31 03:11:49;;;;;;;5.47;1.98;;;17.50;99.90;;;;;;5092715;28;20744;-57
2021/07/31 03:14:15;;;;;;;10.18;2.90;;;17.50;99.90;;;;;;5093140;28;20398;-56
2021/07/31 03:16:41;;;;;;;6.28;2.20;;;17.40;99.90;;;;;;5092504;28;20839;-57
2021/07/31 03:19:06;;;;;;;5.87;2.30;;;17.30;99.90;;;;;;5091809;28;20471;-57
2021/07/31 03:21:32;;;;;;;6.65;2.30;;;17.30;99.90;;;;;;5092698;28;20377;-57
2021/07/31 03:23:58;;;;;;;5.05;1.90;;;17.20;99.90;;;;;;5093344;28;20845;-58
2021/07/31 03:26:23;;;;;;;6.30;2.00;;;17.20;99.90;;;;;;5093075;28;20413;-57
2021/07/31 03:28:49;;;;;;;7.93;2.20;;;17.20;99.90;;;;;;5092056;28;20394;-57
2021/07/31 03:31:19;;;;;;;7.20;2.08;;;17.10;99.90;;;;;;5093356;28;20706;-57
2021/07/31 03:33:45;;;;;;;9.75;2.90;;;17.00;99.90;;;;;;5092294;28;20383;-57
2021/07/31 03:36:11;;;;;;;6.70;2.20;;;16.90;99.90;;;;;;5092888;28;20464;-57
2021/07/31 03:38:36;;;;;;;6.17;2.03;;;16.90;99.90;;;;;;5092221;28;20378;-57
2021/07/31 03:41:02;;;;;;;8.38;2.20;;;16.90;99.90;;;;;;5092887;28;20400;-57
2021/07/31 03:43:27;;;;;;;8.38;2.35;;;16.90;99.90;;;;;;5092914;28;20767;-57
2021/07/31 03:45:53;;;;;;;5.77;2.10;;;16.80;99.90;;;;;;5091898;28;20665;-57
2021/07/31 03:48:19;;;;;;;7.30;2.90;;;16.80;99.90;;;;;;5091295;28;20430;-57
2021/07/31 03:50:44;;;;;;;7.07;2.47;;;16.70;99.90;;;;;;5091515;28;20448;-57
2021/07/31 03:53:10;;;;;;;6.87;2.30;;;16.70;99.90;;;;;;5092299;28;20852;-57
2021/07/31 03:55:35;;;;;;;7.30;2.20;;;16.60;99.90;;;;;;5091719;28;20434;-57
2021/07/31 03:58:02;;;;;;;7.70;2.40;;;16.60;99.90;;;;;;5092169;28;20685;-57
2021/07/31 04:00:28;;;;;;;6.10;2.20;;;16.50;99.90;;;;;;5092543;28;20378;-57
2021/07/31 04:02:54;;;;;;;6.60;2.28;;;16.50;99.90;;;;;;5091627;28;20461;-61
2021/07/31 04:05:20;;;;;;;6.80;2.30;;;16.60;99.90;;;;;;5092315;28;20460;-57
2021/07/31 04:07:45;;;;;;;6.07;2.25;;;16.60;99.90;;;;;;5091469;28;20475;-57
2021/07/31 04:10:11;;;;;;;6.97;2.20;;;16.60;99.90;;;;;;5092241;28;20453;-57
2021/07/31 04:12:37;;;;;;;6.65;2.58;;;16.50;99.90;;;;;;5090978;28;20382;-57
2021/07/31 04:15:03;;;;;;;6.10;2.20;;;16.50;99.90;;;;;;5090414;28;20405;-57
2021/07/31 04:17:28;;;;;;;6.47;2.47;;;16.50;99.90;;;;;;5091551;28;20382;-57
2021/07/31 04:19:54;;;;;;;8.30;2.50;;;16.40;99.90;;;;;;5090929;28;20446;-57
2021/07/31 04:22:19;;;;;;;7.78;2.65;;;16.50;99.90;;;;;;5092020;28;20386;-57
2021/07/31 04:24:45;;;;;;;7.20;2.50;;;16.50;99.90;;;;;;5091008;28;20375;-57
2021/07/31 04:27:11;;;;;;;6.93;2.60;;;16.50;99.90;;;;;;5091543;28;20378;-57
2021/07/31 04:29:36;;;;;;;8.32;2.30;;;16.50;99.90;;;;;;5090907;28;20462;-58
2021/07/31 04:32:02;;;;;;;8.07;2.70;;;16.60;99.90;;;;;;5091872;28;20421;-57
2021/07/31 04:34:29;;;;;;;6.93;2.60;;;16.60;99.90;;;;;;5091635;28;20731;-57
2021/07/31 04:36:55;;;;;;;8.10;3.00;;;16.70;99.90;;;;;;5090724;28;20632;-57
2021/07/31 04:39:21;;;;;;;7.50;2.13;;;16.70;99.90;;;;;;5091376;28;20405;-55
2021/07/31 04:41:46;;;;;;;7.10;2.00;;;16.70;99.90;;;;;;5089410;28;20866;-55
2021/07/31 04:44:12;;;;;;;6.30;1.83;;;16.70;99.90;;;;;;5091440;28;20497;-55
2021/07/31 04:46:38;;;;;;;5.83;2.10;;;16.70;99.90;;;;;;5090787;28;20407;-56
2021/07/31 04:49:03;;;;;;;5.67;2.17;;;16.80;99.90;;;;;;5091455;28;20791;-55
2021/07/31 04:51:29;;;;;;;7.37;2.47;;;16.80;99.90;;;;;;5091407;28;20374;-55
2021/07/31 04:53:54;;;;;;;8.15;3.03;;;16.90;99.90;;;;;;5090932;28;20393;-55
2021/07/31 04:56:20;;;;;;;6.57;2.40;;;17.10;99.90;;;;;;5091026;28;20421;-55
2021/07/31 04:58:46;;;;;;;8.80;2.50;;;17.20;99.90;;;;;;5090204;28;20381;-56
2021/07/31 05:01:11;;;;;;;7.50;2.40;;;17.30;99.90;;;;;;5091169;28;20858;-56
2021/07/31 05:03:37;;;;;;;6.43;2.60;;;17.30;99.90;;;;;;5090652;28;20382;-57
2021/07/31 05:06:06;;;;;;;6.80;2.53;;;17.40;99.90;;;;;;5090868;28;20503;-56
2021/07/31 05:08:32;;;;;;;8.10;2.70;;;17.60;99.90;;;;;;5091140;28;20393;-56
2021/07/31 05:10:57;;;;;;;8.63;2.65;;;18.00;99.90;;;;;;5090471;28;20362;-57
2021/07/31 05:13:23;;;;;;;10.97;2.40;;;18.90;99.90;;;;;;5089507;28;20404;-57
2021/07/31 05:15:49;;;;;;;7.85;2.45;;;19.90;99.90;;;;;;5090170;28;20409;-55
2021/07/31 05:18:15;;;;;;;5.78;2.05;;;20.60;99.90;;;;;;5090888;28;20366;-56
2021/07/31 05:20:46;;;;;;;7.00;2.00;;;21.20;99.90;;;;;;5090312;28;20737;-57
2021/07/31 05:23:13;;;;;;;6.93;2.10;;;21.50;99.90;;;;;;5090493;28;20374;-56
2021/07/31 05:25:44;;;;;;;6.80;2.78;;;22.30;99.90;;;;;;5089646;28;20429;-57
2021/07/31 05:28:10;;;;;;;7.93;2.17;;;23.00;99.90;;;;;;5088951;28;20486;-57
2021/07/31 05:30:43;;;;;;;6.90;2.10;;;23.70;99.90;;;;;;5090613;28;20852;-57
2021/07/31 05:33:09;;;;;;;7.72;1.65;;;24.60;99.90;;;;;;5090656;28;20380;-57
2021/07/31 05:35:34;;;;;;;9.18;2.10;;;25.60;99.90;;;;;;5090674;28;20370;-57
2021/07/31 05:38:01;;;;;;;6.40;2.75;;;26.10;99.20;;;;;;5089681;28;20378;-57
2021/07/31 05:40:26;;;;;;;6.60;1.90;;;25.90;98.10;;;;;;5090840;28;20378;-57
2021/07/31 05:42:52;;;;;;;5.47;1.80;;;25.80;98.90;;;;;;5089864;28;20784;-57
2021/07/31 05:45:18;;;;;;;7.35;1.85;;;25.80;97.60;;;;;;5090582;28;20442;-57
2021/07/31 05:47:44;;;;;;;5.90;2.40;;;25.80;97.20;;;;;;5089544;28;20868;-57
2021/07/31 05:50:11;;;;;;;6.35;1.50;;;25.70;97.80;;;;;;5092968;28;20447;-57
2021/07/31 05:52:38;;;;;;;6.35;1.70;;;26.30;95.90;;;;;;5098008;28;20822;-57
2021/07/31 05:55:05;;;;;;;6.20;1.60;;;26.20;95.20;;;;;;5102678;28;20469;-57
2021/07/31 05:57:31;;;;;;;8.15;1.98;;;26.70;93.10;;;;;;5089791;28;20497;-57
2021/07/31 05:59:57;;;;;;;5.83;1.60;;;26.50;92.60;;;;;;5089159;28;20405;-57
2021/07/31 06:02:22;;;;;;;5.47;1.60;;;26.10;92.20;;;;;;5089727;28;20707;-57
2021/07/31 06:04:48;;;;;;;6.82;1.77;;;26.10;92.50;;;;;;5087798;28;20386;-57
2021/07/31 06:07:13;;;;;;;5.72;1.80;;;26.10;92.40;;;;;;5089141;28;20377;-57
2021/07/31 06:09:40;;;;;;;6.90;1.92;;;26.00;91.90;;;;;;5109685;28;20437;-57
2021/07/31 06:12:08;;;;;;;9.40;2.38;;;26.10;91.80;;;;;;5109668;28;20373;-57
2021/07/31 06:14:38;;;;;;;7.55;1.75;;;25.40;91.30;;;;;;5109810;28;20481;-57
2021/07/31 06:17:04;;;;;;;8.07;2.50;;;25.50;92.30;;;;;;5109043;28;20449;-57
2021/07/31 06:19:30;;;;;;;5.72;1.80;;;25.60;92.20;;;;;;5108257;28;20396;-57
2021/07/31 06:21:58;;;;;;;5.03;1.60;;;26.20;91.20;;;;;;5108968;28;20464;-57
2021/07/31 06:24:24;;;;;;;5.93;1.58;;;27.20;90.00;;;;;;5108897;28;20372;-57
2021/07/31 06:26:50;;;;;;;5.90;1.60;;;26.80;86.30;;;;;;5088838;28;20410;-57
2021/07/31 06:29:16;;;;;;;7.75;2.05;;;25.90;88.70;;;;;;5089199;28;20388;-58
2021/07/31 06:31:42;;;;;;;8.88;1.90;;;25.90;88.60;;;;;;5088835;28;20465;-58
2021/07/31 06:34:08;;;;;;;8.13;2.00;;;25.60;89.40;;;;;;5089205;28;20457;-58
2021/07/31 06:36:34;;;;;;;7.38;2.10;;;25.60;88.20;;;;;;5089063;28;20390;-58
2021/07/31 06:39:01;;;;;;;8.50;2.22;;;26.30;87.80;;;;;;5092314;28;20424;-58
2021/07/31 06:41:27;;;;;;;10.50;1.75;;;26.40;86.50;;;;;;5095680;28;20443;-58
2021/07/31 06:43:53;;;;;;;5.97;1.45;;;26.20;85.30;;;;;;5097454;28;20377;-57
2021/07/31 06:46:18;;;;;;;7.72;1.30;;;26.30;84.50;;;;;;5094856;28;20419;-58
2021/07/31 06:48:44;;;;;;;7.05;1.75;;;26.50;83.80;;;;;;5106387;28;20476;-59
2021/07/31 06:51:10;;;;;;;6.07;1.60;;;26.00;83.00;;;;;;5111746;28;20533;-58
2021/07/31 06:53:36;;;;;;;6.30;1.35;;;26.10;83.10;;;;;;5112582;28;20380;-57
2021/07/31 06:56:03;;;;;;;6.95;1.88;;;25.90;83.50;;;;;;5111579;28;21051;-58
2021/07/31 06:58:29;;;;;;;7.30;1.90;;;26.30;82.80;;;;;;5111057;28;20384;-58
2021/07/31 07:00:54;;;;;;;7.43;2.10;;;26.50;82.20;;;;;;5112117;28;20518;-58
2021/07/31 07:03:20;;;;;;;8.37;1.97;;;26.80;82.10;;;;;;5108587;28;20390;-58
2021/07/31 07:05:46;;;;;;;6.27;1.60;;;26.60;80.60;;;;;;5090458;28;20412;-58
2021/07/31 07:08:12;;;;;;;5.43;1.43;;;27.00;79.50;;;;;;5094371;28;20871;-58
2021/07/31 07:10:37;;;;;;;6.27;1.53;;;27.40;79.50;;;;;;5101765;28;20390;-58
2021/07/31 07:13:03;;;;;;;6.15;1.85;;;27.90;78.10;;;;;;5091061;28;20389;-56
2021/07/31 07:15:29;;;;;;;6.00;1.70;;;27.90;77.10;;;;;;5091950;28;20410;-56
2021/07/31 07:17:55;;;;;;;6.47;1.60;;;28.10;75.70;;;;;;5090118;28;20393;-56
2021/07/31 07:20:21;;;;;;;6.95;2.00;;;28.10;75.10;;;;;;5098874;28;20866;-56
2021/07/31 07:22:47;;;;;;;6.90;1.80;;;28.00;75.10;;;;;;5093491;28;20385;-56
2021/07/31 07:25:12;;;;;;;6.23;1.80;;;28.60;74.90;;;;;;5091714;28;20398;-58
2021/07/31 07:27:38;;;;;;;6.83;1.60;;;29.10;72.80;;;;;;5092375;28;20390;-58
2021/07/31 07:30:05;;;;;;;7.63;1.50;;;27.90;72.80;;;;;;5091445;28;20405;-58
2021/07/31 07:32:31;;;;;;;6.43;1.50;;;27.70;75.30;;;;;;5104496;28;20393;-58
2021/07/31 07:34:56;;;;;;;5.93;1.70;;;27.60;75.50;;;;;;5111036;28;20796;-57
2021/07/31 07:37:22;;;;;;;8.97;2.10;;;26.80;77.00;;;;;;5111141;28;20938;-57
2021/07/31 07:39:47;;;;;;;7.63;1.70;;;27.80;75.00;;;;;;5111369;28;20902;-58
2021/07/31 07:42:13;;;;;;;10.30;1.90;;;29.00;73.10;;;;;;5111194;28;20901;-57
2021/07/31 07:44:39;;;;;;;6.32;1.83;;;28.20;71.30;;;;;;5111353;28;21853;-58
2021/07/31 07:47:04;;;;;;;7.30;3.28;;;28.50;73.50;;;;;;5106088;28;20447;-58
2021/07/31 07:49:30;;;;;;;7.00;3.00;;;28.60;70.20;;;;;;5108987;28;20483;-58
2021/07/31 07:51:55;;;;;;;7.50;2.83;;;29.00;70.90;;;;;;5110738;28;20848;-58
2021/07/31 07:54:21;;;;;;;7.63;3.10;;;29.10;69.10;;;;;;5098631;28;20385;-57
2021/07/31 07:56:47;;;;;;;7.13;1.88;;;28.60;70.60;;;;;;5110685;28;20380;-58
2021/07/31 07:59:13;;;;;;;5.50;1.80;;;27.00;73.50;;;;;;5110318;28;20875;-58
2021/07/31 08:01:38;;;;;;;5.75;1.90;;;27.30;75.60;;;;;;5101613;28;20388;-57
2021/07/31 08:04:04;;;;;;;7.13;1.98;;;26.90;74.60;;;;;;5108627;28;20924;-58
2021/07/31 08:06:30;;;;;;;6.95;1.80;;;26.50;74.80;;;;;;5110122;28;20412;-58
2021/07/31 08:08:55;;;;;;;6.32;1.80;;;26.40;76.70;;;;;;5110162;28;20419;-58
2021/07/31 08:11:21;;;;;;;6.15;1.83;;;26.70;77.00;;;;;;5109769;28;20531;-58
2021/07/31 08:13:47;;;;;;;7.40;2.83;;;28.00;74.00;;;;;;5107520;28;20392;-57
2021/07/31 08:16:13;;;;;;;7.47;3.08;;;27.70;72.40;;;;;;5107808;28;20692;-59
2021/07/31 08:18:38;;;;;;;6.90;2.90;;;26.20;75.40;;;;;;5108830;28;20392;-59
2021/07/31 08:21:04;;;;;;;7.35;2.95;;;25.10;78.40;;;;;;5109465;28;20388;-59
2021/07/31 08:23:30;;;;;;;8.60;3.38;;;25.00;80.70;;;;;;5110607;28;20409;-59
2021/07/31 08:25:56;;;;;;;9.30;3.00;;;25.50;79.20;;;;;;5110009;28;20476;-59
2021/07/31 08:28:21;;;;;;;6.80;2.77;;;25.40;80.20;;;;;;5110697;28;20743;-66
2021/07/31 08:30:47;;;;;;;6.78;2.30;;;26.10;79.10;;;;;;5110452;28;20869;-63
2021/07/31 08:33:13;;;;;;;7.83;2.40;;;26.40;78.60;;;;;;5109081;28;20438;-64
2021/07/31 08:35:38;;;;;;;7.10;3.00;;;26.80;76.50;;;;;;5109934;28;20785;-63
2021/07/31 08:38:04;;;;;;;6.87;2.93;;;26.90;77.40;;;;;;5108030;28;20467;-64
2021/07/31 08:40:33;;;;;;;5.70;2.57;;;26.90;77.00;;;;;;5109061;28;20407;-64
2021/07/31 08:42:58;;;;;;;9.17;2.77;;;26.40;74.00;;;;;;5108522;28;20384;-66
2021/07/31 08:45:24;;;;;;;6.10;2.80;;;26.50;76.20;;;;;;5109014;28;20935;-64
2021/07/31 08:47:50;;;;;;;7.60;2.53;;;27.70;73.30;;;;;;5108191;28;20396;-62
2021/07/31 08:50:16;;;;;;;6.40;2.30;;;28.50;70.40;;;;;;5108635;28;20400;-65
2021/07/31 08:52:46;;;;;;;5.05;2.10;;;28.60;68.70;;;;;;5107814;28;20396;-65
2021/07/31 08:55:12;;;;;;;5.20;1.60;;;29.30;67.90;;;;;;5107310;28;20474;-64
2021/07/31 08:57:38;;;;;;;7.00;2.70;;;29.60;68.00;;;;;;5107927;28;20473;-66
2021/07/31 09:00:05;;;;;;;8.80;2.30;;;30.30;63.80;;;;;;5108703;28;20851;-65
2021/07/31 09:02:42;;;;;;;6.43;1.55;;;32.20;63.00;;;;;;5108746;28;20945;-65
2021/07/31 09:05:09;;;;;;;7.37;1.90;;;33.40;57.60;;;;;;5107204;28;20417;-64
2021/07/31 09:07:35;;;;;;;6.32;1.70;;;32.70;56.10;;;;;;5106231;28;20381;-62
2021/07/31 09:10:26;;;;;;;7.87;2.10;;;31.80;56.70;;;;;;5102202;28;20384;-65
2021/07/31 09:12:58;;;;;;;5.35;2.70;;;30.90;58.70;;;;;;5107509;28;20378;-62
2021/07/31 09:15:34;;;;;;;6.70;3.07;;;30.40;59.40;;;;;;5108530;28;20400;-65
2021/07/31 09:18:19;;;;;;;6.97;3.45;;;29.90;60.10;;;;;;5104352;28;20389;-65
2021/07/31 09:20:53;;;;;;;7.18;3.10;;;30.10;58.90;;;;;;5095874;28;20460;-64
2021/07/31 09:23:19;;;;;;;5.20;2.80;;;31.00;58.20;;;;;;5107375;28;20393;-65
2021/07/31 09:25:59;;;;;;;6.75;3.55;;;31.00;56.30;;;;;;5099120;28;20506;-65
2021/07/31 09:28:25;;;;;;;6.72;2.97;;;29.60;57.70;;;;;;5107452;28;20396;-65
2021/07/31 09:30:51;;;;;;;7.10;2.00;;;28.60;59.80;;;;;;5103741;28;20381;-65
2021/07/31 09:33:18;;;;;;;6.50;1.90;;;28.30;62.60;;;;;;5100491;28;20428;-64
2021/07/31 09:35:46;;;;;;;5.20;1.50;;;28.50;60.60;;;;;;5091938;28;20385;-65
2021/07/31 09:38:12;;;;;;;6.10;1.60;;;28.90;59.40;;;;;;5099026;28;20380;-64
2021/07/31 09:40:37;;;;;;;6.00;2.97;;;30.50;57.40;;;;;;5106327;28;20397;-65
2021/07/31 09:43:17;;;;;;;6.57;3.07;;;31.60;56.30;;;;;;5096969;28;20370;-65
2021/07/31 09:45:43;;;;;;;6.47;2.88;;;31.10;55.10;;;;;;5095864;28;20409;-65
2021/07/31 09:48:10;;;;;;;8.03;3.30;;;30.30;57.00;;;;;;5107518;28;20395;-65
2021/07/31 09:50:42;;;;;;;7.50;3.00;;;30.50;56.60;;;;;;5090579;28;20432;-66
2021/07/31 09:53:21;;;;;;;8.77;3.10;;;29.80;56.50;;;;;;5104925;28;20400;-65
2021/07/31 09:55:51;;;;;;;8.18;3.05;;;29.80;56.70;;;;;;5101221;28;20413;-63
2021/07/31 09:58:19;;;;;;;6.03;3.10;;;29.60;55.80;;;;;;5107572;28;20391;-63
2021/07/31 10:00:47;;;;;;;6.70;2.90;;;29.70;57.30;;;;;;5107482;28;20388;-64
2021/07/31 10:03:14;;;;;;;7.53;2.85;;;30.70;56.00;;;;;;5099406;28;21303;-64
2021/07/31 10:05:41;;;;;;;7.25;2.90;;;31.00;55.50;;;;;;5109294;28;20449;-64
2021/07/31 10:08:09;;;;;;;7.03;3.10;;;30.70;54.80;;;;;;5090834;28;20409;-64
2021/07/31 10:10:35;;;;;;;6.18;2.70;;;30.40;55.20;;;;;;5098612;28;20459;-64
2021/07/31 10:13:02;;;;;;;5.88;3.10;;;30.70;55.00;;;;;;5107368;28;20390;-63
2021/07/31 10:15:27;;;;;;;7.53;3.88;;;30.70;54.30;;;;;;5106184;28;20408;-65
2021/07/31 10:17:53;;;;;;;5.63;3.20;;;30.80;53.80;;;;;;5107984;28;20728;-63
2021/07/31 10:20:27;;;;;;;7.20;3.45;;;30.80;53.90;;;;;;5097904;28;20442;-64
2021/07/31 10:22:53;;;;;;;7.00;2.90;;;30.50;53.60;;;;;;5107627;28;20475;-63
2021/07/31 10:25:25;;;;;;;5.53;2.72;;;30.80;52.90;;;;;;5103618;28;20400;-63
2021/07/31 10:27:53;;;;;;;6.50;3.35;;;30.80;52.50;;;;;;5103388;28;20395;-64
2021/07/31 10:30:34;;;;;;;6.07;3.00;;;30.30;53.30;;;;;;5095391;28;20554;-63
2021/07/31 10:33:00;;;;;;;7.90;3.20;;;29.50;54.40;;;;;;5088066;28;20382;-61
2021/07/31 10:35:28;;;;;;;7.30;2.70;;;29.70;54.50;;;;;;5099114;28;20388;-62
2021/07/31 10:37:56;;;;;;;6.00;2.70;;;29.80;54.60;;;;;;5107404;28;20743;-63
2021/07/31 10:40:36;;;;;;;5.68;2.80;;;29.50;55.20;;;;;;5104579;28;20392;-63
2021/07/31 10:43:06;;;;;;;6.77;3.17;;;29.30;54.90;;;;;;5107150;28;20384;-62
2021/07/31 10:45:33;;;;;;;6.85;1.70;;;28.70;56.20;;;;;;5104777;28;20408;-62
2021/07/31 10:48:22;;;;;;;7.47;2.30;;;27.60;57.30;;;;;;5104698;28;20388;-61
2021/07/31 10:50:48;;;;;;;6.60;1.73;;;27.50;58.70;;;;;;5105610;28;20399;-62
2021/07/31 10:53:14;;;;;;;6.72;2.00;;;27.70;58.80;;;;;;5105980;28;20388;-61
2021/07/31 10:55:42;;;;;;;7.05;1.98;;;27.60;58.30;;;;;;5108229;28;20412;-63
2021/07/31 10:58:15;;;;;;;5.65;1.48;;;27.60;59.50;;;;;;5105267;28;20483;-62
2021/07/31 11:00:44;;;;;;;5.50;1.80;;;28.00;59.10;;;;;;5104959;28;20392;-62
2021/07/31 11:03:15;;;;;;;6.25;1.60;;;28.10;58.70;;;;;;5103807;28;20394;-62
2021/07/31 11:06:00;;;;;;;6.30;2.00;;;27.50;58.70;;;;;;5104372;28;20400;-62
2021/07/31 11:08:52;;;;;;;6.57;2.30;;;27.00;60.40;;;;;;5103601;28;20393;-61
2021/07/31 11:11:19;;;;;;;6.45;1.80;;;26.70;60.20;;;;;;5107405;28;20384;-62
2021/07/31 11:13:44;;;;;;;9.60;2.10;;;26.70;61.60;;;;;;5106106;28;20495;-61
2021/07/31 11:16:13;;;;;;;10.15;2.22;;;26.50;61.40;;;;;;5105802;28;20535;-61
2021/07/31 11:18:43;;;;;;;7.40;2.00;;;26.40;62.00;;;;;;5107361;28;20392;-61
2021/07/31 11:21:18;;;;;;;7.90;1.80;;;26.70;61.70;;;;;;5105770;28;20400;-61
2021/07/31 11:23:53;;;;;;;5.63;1.70;;;26.40;62.00;;;;;;5106407;28;20380;-61
2021/07/31 11:26:43;;;;;;;6.53;1.80;;;26.40;62.20;;;;;;5107970;28;20494;-61
2021/07/31 11:29:23;;;;;;;7.47;2.20;;;27.20;60.20;;;;;;5106704;28;20839;-61
2021/07/31 11:32:12;;;;;;;5.72;1.40;;;27.30;60.20;;;;;;5102512;28;20909;-62
2021/07/31 11:34:43;;;;;;;5.68;1.83;;;27.10;63.80;;;;;;5106085;28;20878;-62
2021/07/31 11:37:09;;;;;;;6.35;1.85;;;27.70;61.20;;;;;;5108763;28;20392;-61
2021/07/31 11:39:36;;;;;;;6.50;1.90;;;28.20;57.80;;;;;;5105737;28;20392;-61
2021/07/31 11:42:04;;;;;;;7.30;1.67;;;27.70;58.60;;;;;;5105859;28;20466;-61
2021/07/31 11:44:32;;;;;;;7.97;1.80;;;27.20;58.10;;;;;;5109772;28;20419;-61
2021/07/31 11:46:58;;;;;;;6.82;2.38;;;27.10;58.70;;;;;;5109924;28;20443;-62
2021/07/31 11:49:25;;;;;;;6.18;2.00;;;27.00;59.20;;;;;;5097480;28;20419;-61
2021/07/31 11:51:56;;;;;;;5.80;1.80;;;27.10;59.90;;;;;;5094325;28;20396;-62
2021/07/31 11:54:22;;;;;;;6.30;1.90;;;27.40;60.20;;;;;;5097047;28;20396;-62
2021/07/31 11:56:50;;;;;;;8.55;1.83;;;27.00;60.60;;;;;;5100094;28;20376;-62
2021/07/31 11:59:24;;;;;;;5.20;1.50;;;27.20;59.70;;;;;;5099370;28;20466;-62
2021/07/31 12:01:54;;;;;;;6.43;1.90;;;26.20;61.80;;;;;;5100237;28;20401;-62
2021/07/31 12:04:39;;;;;;;6.57;2.00;;;26.40;62.40;;;;;;5104196;28;20954;-63
2021/07/31 12:07:10;;;;;;;6.20;1.83;;;26.50;59.80;;;;;;5108161;27;20416;-59
2021/07/31 12:09:36;;;;;;;7.93;2.22;;;26.50;61.50;;;;;;5107573;28;20395;-56
2021/07/31 12:12:01;;;;;;;6.10;2.00;;;26.70;60.60;;;;;;5108854;28;20392;-56
2021/07/31 12:14:31;;;;;;;6.30;2.40;;;26.70;59.20;;;;;;5103179;28;20408;-57
2021/07/31 12:17:33;;;;;;;5.80;1.92;;;27.10;59.80;;;;;;5104219;28;20442;-57
2021/07/31 12:19:59;;;;;;;6.50;1.90;;;27.10;58.90;;;;;;5105214;28;20541;-57
2021/07/31 12:22:29;;;;;;;5.80;2.00;;;27.10;60.50;;;;;;5099332;28;21025;-57
2021/07/31 12:25:16;;;;;;;5.40;1.70;;;26.70;61.40;;;;;;5097682;28;20396;-57
2021/07/31 12:27:48;;;;;;;7.57;2.05;;;26.90;61.20;;;;;;5099300;28;20406;-56
2021/07/31 12:30:28;;;;;;;6.43;2.15;;;26.70;61.70;;;;;;5089964;28;20382;-57
2021/07/31 12:33:01;;;;;;;6.43;2.00;;;26.80;60.50;;;;;;5102458;28;20916;-57
2021/07/31 12:35:31;;;;;;;7.97;1.63;;;26.60;60.70;;;;;;5095741;28;20439;-57
2021/07/31 12:37:57;;;;;;;6.85;2.25;;;26.40;61.40;;;;;;5100828;28;20382;-57
2021/07/31 12:40:23;;;;;;;6.75;2.13;;;26.40;61.90;;;;;;5096522;28;20384;-57
2021/07/31 12:42:48;;;;;;;6.75;2.20;;;26.60;61.90;;;;;;5098146;28;20434;-57
2021/07/31 12:45:14;;;;;;;6.70;1.80;;;26.90;62.40;;;;;;5099058;28;20889;-57
2021/07/31 12:47:40;;;;;;;7.40;2.00;;;27.30;61.50;;;;;;5106789;28;20747;-57